sensor_id;sensor_type;location;lat;lon;timestamp;pressure;altitude;pressure_sealevel;temperature;humidity
37066;BME280;22981;43.080;25.550;2023-01-27T00:01:04;99001.42;;;1.33;83.14
37066;BME280;22981;43.080;25.550;2023-01-27T00:03:31;99001.42;;;1.33;83.07
37066;BME280;22981;43.080;25.550;2023-01-27T00:05:59;98999.78;;;1.32;83.06
37066;BME280;22981;43.080;25.550;2023-01-27T00:08:27;98996.33;;;1.31;83.11
37066;BME280;22981;43.080;25.550;2023-01-27T00:10:59;99001.60;;;1.31;83.11
37066;BME280;22981;43.080;25.550;2023-01-27T00:13:44;98998.47;;;1.32;83.10
37066;BME280;22981;43.080;25.550;2023-01-27T00:16:12;99002.60;;;1.30;83.04
37066;BME280;22981;43.080;25.550;2023-01-27T00:18:39;98997.01;;;1.29;83.05
37066;BME280;22981;43.080;25.550;2023-01-27T00:21:07;98991.89;;;1.28;83.08
37066;BME280;22981;43.080;25.550;2023-01-27T00:23:53;98996.66;;;1.28;83.10
37066;BME280;22981;43.080;25.550;2023-01-27T00:26:38;98996.66;;;1.28;83.10
37066;BME280;22981;43.080;25.550;2023-01-27T00:29:06;98994.53;;;1.28;83.02
37066;BME280;22981;43.080;25.550;2023-01-27T00:31:33;98997.52;;;1.24;83.07
37066;BME280;22981;43.080;25.550;2023-01-27T00:34:19;98994.22;;;1.22;83.15
37066;BME280;22981;43.080;25.550;2023-01-27T00:36:46;98996.36;;;1.23;83.15
37066;BME280;22981;43.080;25.550;2023-01-27T00:39:14;98998.68;;;1.22;83.19
37066;BME280;22981;43.080;25.550;2023-01-27T00:41:41;99003.95;;;1.22;83.26
37066;BME280;22981;43.080;25.550;2023-01-27T00:44:09;99004.27;;;1.23;83.30
37066;BME280;22981;43.080;25.550;2023-01-27T00:46:40;99000.81;;;1.22;83.28
37066;BME280;22981;43.080;25.550;2023-01-27T00:49:08;98999.50;;;1.22;83.28
37066;BME280;22981;43.080;25.550;2023-01-27T00:51:36;99010.05;;;1.22;83.26
37066;BME280;22981;43.080;25.550;2023-01-27T00:54:04;99019.77;;;1.22;83.23
37066;BME280;22981;43.080;25.550;2023-01-27T00:56:32;99028.18;;;1.21;83.25
37066;BME280;22981;43.080;25.550;2023-01-27T00:59:00;99045.32;;;1.21;83.27
37066;BME280;22981;43.080;25.550;2023-01-27T01:01:28;99041.05;;;1.20;83.32
37066;BME280;22981;43.080;25.550;2023-01-27T01:03:56;99037.91;;;1.21;83.33
37066;BME280;22981;43.080;25.550;2023-01-27T01:06:26;99040.05;;;1.21;83.29
37066;BME280;22981;43.080;25.550;2023-01-27T01:08:56;99034.27;;;1.22;83.24
37066;BME280;22981;43.080;25.550;2023-01-27T01:11:24;99011.86;;;1.22;83.27
37066;BME280;22981;43.080;25.550;2023-01-27T01:13:52;99006.09;;;1.22;83.25
37066;BME280;22981;43.080;25.550;2023-01-27T01:16:22;99001.95;;;1.24;83.26
37066;BME280;22981;43.080;25.550;2023-01-27T01:18:50;98989.62;;;1.24;83.27
37066;BME280;22981;43.080;25.550;2023-01-27T01:21:17;98974.77;;;1.23;83.27
37066;BME280;22981;43.080;25.550;2023-01-27T01:23:45;98983.84;;;1.25;83.25
37066;BME280;22981;43.080;25.550;2023-01-27T01:26:15;98980.03;;;1.23;83.33
37066;BME280;22981;43.080;25.550;2023-01-27T01:28:44;98979.07;;;1.24;83.28
37066;BME280;22981;43.080;25.550;2023-01-27T01:31:15;98986.31;;;1.22;83.27
37066;BME280;22981;43.080;25.550;2023-01-27T01:33:42;98974.77;;;1.23;83.31
37066;BME280;22981;43.080;25.550;2023-01-27T01:36:13;98970.47;;;1.27;83.23
37066;BME280;22981;43.080;25.550;2023-01-27T01:38:41;98959.92;;;1.27;82.99
37066;BME280;22981;43.080;25.550;2023-01-27T01:41:11;98959.92;;;1.27;82.99
37066;BME280;22981;43.080;25.550;2023-01-27T01:43:39;98955.16;;;1.26;83.13
37066;BME280;22981;43.080;25.550;2023-01-27T01:46:10;98956.30;;;1.23;83.12
37066;BME280;22981;43.080;25.550;2023-01-27T01:48:44;98970.67;;;1.21;83.16
37066;BME280;22981;43.080;25.550;2023-01-27T01:51:27;98969.50;;;1.19;83.16
37066;BME280;22981;43.080;25.550;2023-01-27T01:54:14;98959.78;;;1.20;83.13
37066;BME280;22981;43.080;25.550;2023-01-27T01:56:44;98967.73;;;1.16;83.10
37066;BME280;22981;43.080;25.550;2023-01-27T01:59:24;98967.73;;;1.16;83.10
37066;BME280;22981;43.080;25.550;2023-01-27T02:01:42;98964.42;;;1.18;82.95
37066;BME280;22981;43.080;25.550;2023-01-27T02:04:13;98954.69;;;1.18;82.95
37066;BME280;22981;43.080;25.550;2023-01-27T02:06:46;98956.19;;;1.17;82.92
37066;BME280;22981;43.080;25.550;2023-01-27T02:09:14;98954.05;;;1.16;82.95
37066;BME280;22981;43.080;25.550;2023-01-27T02:11:42;98949.75;;;1.15;82.95
37066;BME280;22981;43.080;25.550;2023-01-27T02:14:10;98959.83;;;1.16;82.94
37066;BME280;22981;43.080;25.550;2023-01-27T02:16:40;98962.93;;;1.15;82.95
37066;BME280;22981;43.080;25.550;2023-01-27T02:19:10;98950.59;;;1.16;83.03
37066;BME280;22981;43.080;25.550;2023-01-27T02:21:38;98931.77;;;1.19;82.99
37066;BME280;22981;43.080;25.550;2023-01-27T02:24:06;98897.02;;;1.15;83.00
37066;BME280;22981;43.080;25.550;2023-01-27T02:26:39;98897.02;;;1.15;83.00
37066;BME280;22981;43.080;25.550;2023-01-27T02:29:15;98913.32;;;1.19;82.96
37066;BME280;22981;43.080;25.550;2023-01-27T02:31:40;98910.37;;;1.18;82.96
37066;BME280;22981;43.080;25.550;2023-01-27T02:34:16;98895.86;;;1.18;82.95
37066;BME280;22981;43.080;25.550;2023-01-27T02:36:52;98893.86;;;1.20;82.92
37066;BME280;22981;43.080;25.550;2023-01-27T02:39:21;98887.64;;;1.17;82.90
37066;BME280;22981;43.080;25.550;2023-01-27T02:41:52;98900.82;;;1.17;82.94
37066;BME280;22981;43.080;25.550;2023-01-27T02:44:21;98921.41;;;1.17;82.96
37066;BME280;22981;43.080;25.550;2023-01-27T02:46:48;98929.14;;;1.19;82.94
37066;BME280;22981;43.080;25.550;2023-01-27T02:49:16;98926.82;;;1.20;82.94
37066;BME280;22981;43.080;25.550;2023-01-27T02:51:43;98907.89;;;1.20;82.93
37066;BME280;22981;43.080;25.550;2023-01-27T02:54:11;98911.16;;;1.22;82.93
37066;BME280;22981;43.080;25.550;2023-01-27T02:56:39;98919.58;;;1.22;82.91
37066;BME280;22981;43.080;25.550;2023-01-27T02:59:06;98912.98;;;1.22;82.90
37066;BME280;22981;43.080;25.550;2023-01-27T03:01:34;98903.77;;;1.18;82.66
37066;BME280;22981;43.080;25.550;2023-01-27T03:04:01;98903.77;;;1.18;82.66
37066;BME280;22981;43.080;25.550;2023-01-27T03:06:29;98911.00;;;1.20;82.90
37066;BME280;22981;43.080;25.550;2023-01-27T03:08:56;98909.22;;;1.20;82.96
37066;BME280;22981;43.080;25.550;2023-01-27T03:11:24;98908.02;;;1.23;82.95
37066;BME280;22981;43.080;25.550;2023-01-27T03:14:09;98919.73;;;1.24;82.94
37066;BME280;22981;43.080;25.550;2023-01-27T03:16:37;98932.42;;;1.25;82.85
37066;BME280;22981;43.080;25.550;2023-01-27T03:19:22;98929.44;;;1.24;82.90
37066;BME280;22981;43.080;25.550;2023-01-27T03:21:55;98925.33;;;1.25;82.77
37066;BME280;22981;43.080;25.550;2023-01-27T03:24:22;98925.33;;;1.25;82.77
37066;BME280;22981;43.080;25.550;2023-01-27T03:26:50;98935.38;;;1.26;82.87
37066;BME280;22981;43.080;25.550;2023-01-27T03:29:17;98929.94;;;1.23;82.92
37066;BME280;22981;43.080;25.550;2023-01-27T03:32:03;98927.15;;;1.25;82.97
37066;BME280;22981;43.080;25.550;2023-01-27T03:34:30;98925.02;;;1.24;82.90
37066;BME280;22981;43.080;25.550;2023-01-27T03:36:58;98930.28;;;1.24;82.96
37066;BME280;22981;43.080;25.550;2023-01-27T03:39:44;98930.28;;;1.24;82.96
37066;BME280;22981;43.080;25.550;2023-01-27T03:42:29;98930.94;;;1.22;82.93
37066;BME280;22981;43.080;25.550;2023-01-27T03:45:14;98925.67;;;1.22;82.92
37066;BME280;22981;43.080;25.550;2023-01-27T03:48:00;98923.53;;;1.22;82.87
37066;BME280;22981;43.080;25.550;2023-01-27T03:50:28;98922.55;;;1.19;82.90
37066;BME280;22981;43.080;25.550;2023-01-27T03:53:06;98925.19;;;1.19;82.96
37066;BME280;22981;43.080;25.550;2023-01-27T03:55:35;98932.94;;;1.20;83.01
37066;BME280;22981;43.080;25.550;2023-01-27T03:58:07;98933.78;;;1.17;83.32
37066;BME280;22981;43.080;25.550;2023-01-27T04:00:58;98933.78;;;1.17;83.32
37066;BME280;22981;43.080;25.550;2023-01-27T04:03:23;98929.00;;;1.16;83.18
37066;BME280;22981;43.080;25.550;2023-01-27T04:06:13;98924.55;;;1.17;83.25
37066;BME280;22981;43.080;25.550;2023-01-27T04:08:57;98919.09;;;1.18;83.21
37066;BME280;22981;43.080;25.550;2023-01-27T04:11:25;98908.05;;;1.19;83.19
37066;BME280;22981;43.080;25.550;2023-01-27T04:14:12;98901.45;;;1.19;83.24
37066;BME280;22981;43.080;25.550;2023-01-27T04:16:39;98905.26;;;1.20;83.22
37066;BME280;22981;43.080;25.550;2023-01-27T04:19:08;98916.45;;;1.18;83.25
37066;BME280;22981;43.080;25.550;2023-01-27T04:21:36;98916.45;;;1.18;83.25
37066;BME280;22981;43.080;25.550;2023-01-27T04:24:04;98913.00;;;1.18;83.34
37066;BME280;22981;43.080;25.550;2023-01-27T04:26:37;98905.94;;;1.14;83.35
37066;BME280;22981;43.080;25.550;2023-01-27T04:29:06;98907.77;;;1.10;83.43
37066;BME280;22981;43.080;25.550;2023-01-27T04:31:34;98915.20;;;1.06;83.49
37066;BME280;22981;43.080;25.550;2023-01-27T04:34:01;98925.94;;;1.00;83.74
37066;BME280;22981;43.080;25.550;2023-01-27T04:36:29;98925.94;;;1.00;83.74
37066;BME280;22981;43.080;25.550;2023-01-27T04:38:56;98933.34;;;1.01;83.91
37066;BME280;22981;43.080;25.550;2023-01-27T04:41:24;98947.51;;;1.04;83.91
37066;BME280;22981;43.080;25.550;2023-01-27T04:43:51;98938.10;;;1.06;83.89
37066;BME280;22981;43.080;25.550;2023-01-27T04:46:19;98937.77;;;1.09;83.88
37066;BME280;22981;43.080;25.550;2023-01-27T04:48:46;98934.45;;;1.11;83.84
37066;BME280;22981;43.080;25.550;2023-01-27T04:51:14;98921.61;;;1.12;83.80
37066;BME280;22981;43.080;25.550;2023-01-27T04:53:42;98923.38;;;1.15;83.74
37066;BME280;22981;43.080;25.550;2023-01-27T04:56:17;98912.84;;;1.15;83.68
37066;BME280;22981;43.080;25.550;2023-01-27T04:58:43;98928.83;;;1.18;83.35
37066;BME280;22981;43.080;25.550;2023-01-27T05:01:10;98928.64;;;1.19;83.66
37066;BME280;22981;43.080;25.550;2023-01-27T05:03:38;98928.64;;;1.19;83.66
37066;BME280;22981;43.080;25.550;2023-01-27T05:06:05;98925.03;;;1.20;83.62
37066;BME280;22981;43.080;25.550;2023-01-27T05:08:33;98923.53;;;1.22;83.57
37066;BME280;22981;43.080;25.550;2023-01-27T05:11:01;98900.11;;;1.23;83.68
37066;BME280;22981;43.080;25.550;2023-01-27T05:13:28;98900.11;;;1.23;83.68
37066;BME280;22981;43.080;25.550;2023-01-27T05:16:17;98885.61;;;1.23;83.49
37066;BME280;22981;43.080;25.550;2023-01-27T05:18:46;98896.66;;;1.22;83.47
37066;BME280;22981;43.080;25.550;2023-01-27T05:21:23;98899.13;;;1.20;83.36
37066;BME280;22981;43.080;25.550;2023-01-27T05:23:48;98899.50;;;1.17;83.39
37066;BME280;22981;43.080;25.550;2023-01-27T05:26:21;98915.66;;;1.14;83.65
37066;BME280;22981;43.080;25.550;2023-01-27T05:28:50;98915.66;;;1.14;83.65
37066;BME280;22981;43.080;25.550;2023-01-27T05:31:21;98916.17;;;1.09;83.46
37066;BME280;22981;43.080;25.550;2023-01-27T05:33:50;98908.45;;;1.08;83.60
37066;BME280;22981;43.080;25.550;2023-01-27T05:36:20;98897.41;;;1.08;83.65
37066;BME280;22981;43.080;25.550;2023-01-27T05:38:48;98884.36;;;1.11;83.63
37066;BME280;22981;43.080;25.550;2023-01-27T05:41:17;98886.66;;;1.14;83.65
37066;BME280;22981;43.080;25.550;2023-01-27T05:43:49;98900.00;;;1.16;83.64
37066;BME280;22981;43.080;25.550;2023-01-27T05:46:17;98914.32;;;1.18;83.57
37066;BME280;22981;43.080;25.550;2023-01-27T05:48:50;98914.32;;;1.18;83.55
37066;BME280;22981;43.080;25.550;2023-01-27T05:51:18;98914.64;;;1.19;83.57
37066;BME280;22981;43.080;25.550;2023-01-27T05:53:47;98923.36;;;1.19;83.53
37066;BME280;22981;43.080;25.550;2023-01-27T05:56:16;98925.03;;;1.20;83.46
37066;BME280;22981;43.080;25.550;2023-01-27T05:58:45;98917.94;;;1.21;83.45
37066;BME280;22981;43.080;25.550;2023-01-27T06:01:21;98917.44;;;1.21;83.46
37066;BME280;22981;43.080;25.550;2023-01-27T06:03:49;98918.76;;;1.21;83.50
37066;BME280;22981;43.080;25.550;2023-01-27T06:06:19;98931.96;;;1.17;83.51
37066;BME280;22981;43.080;25.550;2023-01-27T06:08:47;98938.73;;;1.16;83.60
37066;BME280;22981;43.080;25.550;2023-01-27T06:11:16;98941.69;;;1.17;83.67
37066;BME280;22981;43.080;25.550;2023-01-27T06:13:45;98954.50;;;1.20;83.53
37066;BME280;22981;43.080;25.550;2023-01-27T06:16:15;98954.50;;;1.20;83.53
37066;BME280;22981;43.080;25.550;2023-01-27T06:18:44;98950.08;;;1.20;83.67
37066;BME280;22981;43.080;25.550;2023-01-27T06:21:12;98940.00;;;1.20;83.70
37066;BME280;22981;43.080;25.550;2023-01-27T06:23:41;98948.27;;;1.21;83.72
37066;BME280;22981;43.080;25.550;2023-01-27T06:26:11;98954.17;;;1.23;83.70
37066;BME280;22981;43.080;25.550;2023-01-27T06:28:38;98952.35;;;1.23;83.70
37066;BME280;22981;43.080;25.550;2023-01-27T06:31:11;98945.73;;;1.28;83.64
37066;BME280;22981;43.080;25.550;2023-01-27T06:33:39;98937.20;;;1.25;83.61
37066;BME280;22981;43.080;25.550;2023-01-27T06:36:10;98930.10;;;1.26;83.56
37066;BME280;22981;43.080;25.550;2023-01-27T06:38:37;98917.73;;;1.27;83.56
37066;BME280;22981;43.080;25.550;2023-01-27T06:41:05;98919.72;;;1.29;83.49
37066;BME280;22981;43.080;25.550;2023-01-27T06:43:33;98926.78;;;1.28;83.45
37066;BME280;22981;43.080;25.550;2023-01-27T06:46:01;98924.14;;;1.28;83.41
37066;BME280;22981;43.080;25.550;2023-01-27T06:48:29;98948.87;;;1.27;83.52
37066;BME280;22981;43.080;25.550;2023-01-27T06:50:56;98948.87;;;1.27;83.52
37066;BME280;22981;43.080;25.550;2023-01-27T06:53:24;98958.77;;;1.29;83.23
37066;BME280;22981;43.080;25.550;2023-01-27T06:55:57;98962.23;;;1.30;83.16
37066;BME280;22981;43.080;25.550;2023-01-27T06:58:25;98957.77;;;1.30;83.14
37066;BME280;22981;43.080;25.550;2023-01-27T07:00:53;98953.12;;;1.32;83.09
37066;BME280;22981;43.080;25.550;2023-01-27T07:03:21;98957.25;;;1.35;83.10
37066;BME280;22981;43.080;25.550;2023-01-27T07:05:48;98956.44;;;1.34;83.07
37066;BME280;22981;43.080;25.550;2023-01-27T07:08:16;98950.66;;;1.35;83.07
37066;BME280;22981;43.080;25.550;2023-01-27T07:10:44;98946.70;;;1.35;83.04
37066;BME280;22981;43.080;25.550;2023-01-27T07:13:13;98957.25;;;1.35;83.12
37066;BME280;22981;43.080;25.550;2023-01-27T07:15:41;98953.46;;;1.37;83.19
37066;BME280;22981;43.080;25.550;2023-01-27T07:18:10;98948.80;;;1.43;83.13
37066;BME280;22981;43.080;25.550;2023-01-27T07:20:40;98962.80;;;1.44;83.01
37066;BME280;22981;43.080;25.550;2023-01-27T07:23:09;98959.66;;;1.44;82.96
37066;BME280;22981;43.080;25.550;2023-01-27T07:25:36;98958.19;;;1.46;82.91
37066;BME280;22981;43.080;25.550;2023-01-27T07:28:05;98957.69;;;1.46;82.87
37066;BME280;22981;43.080;25.550;2023-01-27T07:30:33;98956.87;;;1.46;82.84
37066;BME280;22981;43.080;25.550;2023-01-27T07:33:09;98973.02;;;1.47;82.79
37066;BME280;22981;43.080;25.550;2023-01-27T07:35:37;98972.70;;;1.46;82.73
37066;BME280;22981;43.080;25.550;2023-01-27T07:38:07;98976.97;;;1.47;82.70
37066;BME280;22981;43.080;25.550;2023-01-27T07:40:35;98971.02;;;1.49;82.70
37066;BME280;22981;43.080;25.550;2023-01-27T07:43:03;98975.63;;;1.51;82.72
37066;BME280;22981;43.080;25.550;2023-01-27T07:45:30;98975.63;;;1.51;82.72
37066;BME280;22981;43.080;25.550;2023-01-27T07:48:05;98977.95;;;1.50;82.65
37066;BME280;22981;43.080;25.550;2023-01-27T07:50:34;98977.77;;;1.52;82.66
37066;BME280;22981;43.080;25.550;2023-01-27T07:53:03;98969.54;;;1.50;82.62
37066;BME280;22981;43.080;25.550;2023-01-27T07:55:32;98969.54;;;1.50;82.62
37066;BME280;22981;43.080;25.550;2023-01-27T07:58:00;98956.50;;;1.49;82.62
37066;BME280;22981;43.080;25.550;2023-01-27T08:00:28;98956.50;;;1.49;82.62
37066;BME280;22981;43.080;25.550;2023-01-27T08:02:57;98957.33;;;1.49;82.61
37066;BME280;22981;43.080;25.550;2023-01-27T08:05:25;98948.27;;;1.48;82.60
37066;BME280;22981;43.080;25.550;2023-01-27T08:07:54;98944.00;;;1.47;82.67
37066;BME280;22981;43.080;25.550;2023-01-27T08:10:22;98932.11;;;1.51;82.80
37066;BME280;22981;43.080;25.550;2023-01-27T08:12:49;98934.06;;;1.53;82.74
37066;BME280;22981;43.080;25.550;2023-01-27T08:15:17;98930.77;;;1.55;82.54
37066;BME280;22981;43.080;25.550;2023-01-27T08:17:52;98930.77;;;1.55;82.54
37066;BME280;22981;43.080;25.550;2023-01-27T08:20:21;98927.94;;;1.57;82.77
37066;BME280;22981;43.080;25.550;2023-01-27T08:22:48;98931.39;;;1.57;82.73
37066;BME280;22981;43.080;25.550;2023-01-27T08:25:16;98922.34;;;1.56;82.79
37066;BME280;22981;43.080;25.550;2023-01-27T08:27:43;98920.00;;;1.61;82.86
37066;BME280;22981;43.080;25.550;2023-01-27T08:30:11;98920.00;;;1.61;82.86
37066;BME280;22981;43.080;25.550;2023-01-27T08:32:39;98921.48;;;1.63;82.82
37066;BME280;22981;43.080;25.550;2023-01-27T08:35:06;98918.49;;;1.62;82.82
37066;BME280;22981;43.080;25.550;2023-01-27T08:37:34;98919.34;;;1.63;82.87
37066;BME280;22981;43.080;25.550;2023-01-27T08:40:02;98918.02;;;1.63;82.78
37066;BME280;22981;43.080;25.550;2023-01-27T08:42:30;98920.16;;;1.63;82.73
37066;BME280;22981;43.080;25.550;2023-01-27T08:44:57;98921.30;;;1.65;82.63
37066;BME280;22981;43.080;25.550;2023-01-27T08:47:25;98915.88;;;1.58;82.43
37066;BME280;22981;43.080;25.550;2023-01-27T08:49:53;98915.88;;;1.58;82.43
37066;BME280;22981;43.080;25.550;2023-01-27T08:52:21;98921.63;;;1.62;82.42
37066;BME280;22981;43.080;25.550;2023-01-27T08:54:48;98924.62;;;1.63;82.48
37066;BME280;22981;43.080;25.550;2023-01-27T08:57:16;98919.47;;;1.65;82.50
37066;BME280;22981;43.080;25.550;2023-01-27T08:59:44;98924.75;;;1.65;82.38
37066;BME280;22981;43.080;25.550;2023-01-27T09:02:12;98921.82;;;1.60;82.36
37066;BME280;22981;43.080;25.550;2023-01-27T09:04:40;98921.82;;;1.60;82.36
37066;BME280;22981;43.080;25.550;2023-01-27T09:07:09;98923.33;;;1.59;82.46
37066;BME280;22981;43.080;25.550;2023-01-27T09:09:37;98910.69;;;1.50;82.48
37066;BME280;22981;43.080;25.550;2023-01-27T09:12:04;98910.34;;;1.49;82.70
37066;BME280;22981;43.080;25.550;2023-01-27T09:14:33;98908.18;;;1.53;82.74
37066;BME280;22981;43.080;25.550;2023-01-27T09:17:00;98907.66;;;1.57;82.68
37066;BME280;22981;43.080;25.550;2023-01-27T09:19:28;98899.37;;;1.64;82.66
37066;BME280;22981;43.080;25.550;2023-01-27T09:21:56;98899.37;;;1.64;82.66
37066;BME280;22981;43.080;25.550;2023-01-27T09:24:23;98900.00;;;1.66;82.60
37066;BME280;22981;43.080;25.550;2023-01-27T09:26:51;98890.95;;;1.65;82.53
37066;BME280;22981;43.080;25.550;2023-01-27T09:29:18;98890.95;;;1.65;82.53
37066;BME280;22981;43.080;25.550;2023-01-27T09:31:46;98890.73;;;1.70;82.51
37066;BME280;22981;43.080;25.550;2023-01-27T09:34:13;98888.91;;;1.71;82.47
37066;BME280;22981;43.080;25.550;2023-01-27T09:36:45;98890.61;;;1.68;82.41
37066;BME280;22981;43.080;25.550;2023-01-27T09:39:15;98895.53;;;1.67;82.45
37066;BME280;22981;43.080;25.550;2023-01-27T09:55:55;98886.30;;;1.67;82.01
37066;BME280;22981;43.080;25.550;2023-01-27T09:58:34;98886.80;;;1.66;82.09
37066;BME280;22981;43.080;25.550;2023-01-27T10:01:02;98883.85;;;1.65;82.09
37066;BME280;22981;43.080;25.550;2023-01-27T10:03:55;98879.61;;;1.60;82.29
37066;BME280;22981;43.080;25.550;2023-01-27T10:06:28;98879.61;;;1.60;82.29
37066;BME280;22981;43.080;25.550;2023-01-27T10:09:20;98883.38;;;1.62;82.30
37066;BME280;22981;43.080;25.550;2023-01-27T10:17:14;98866.57;;;1.63;82.38
37066;BME280;22981;43.080;25.550;2023-01-27T10:19:41;98859.28;;;1.65;82.32
37066;BME280;22981;43.080;25.550;2023-01-27T10:22:30;98862.55;;;1.67;82.26
37066;BME280;22981;43.080;25.550;2023-01-27T10:25:47;98861.73;;;1.66;82.30
37066;BME280;22981;43.080;25.550;2023-01-27T10:27:30;98861.73;;;1.66;82.30
37066;BME280;22981;43.080;25.550;2023-01-27T10:30:07;98858.13;;;1.67;82.13
37066;BME280;22981;43.080;25.550;2023-01-27T10:35:26;98861.89;;;1.69;82.18
37066;BME280;22981;43.080;25.550;2023-01-27T10:41:00;98833.02;;;1.71;82.05
37066;BME280;22981;43.080;25.550;2023-01-27T10:43:31;98833.02;;;1.71;82.05
37066;BME280;22981;43.080;25.550;2023-01-27T10:51:24;98828.34;;;1.78;82.07
37066;BME280;22981;43.080;25.550;2023-01-27T10:53:57;98821.39;;;1.81;82.01
37066;BME280;22981;43.080;25.550;2023-01-27T10:56:57;98819.88;;;1.82;82.01
37066;BME280;22981;43.080;25.550;2023-01-27T11:02:38;98816.23;;;1.83;81.91
37066;BME280;22981;43.080;25.550;2023-01-27T11:05:12;98817.20;;;1.86;81.89
37066;BME280;22981;43.080;25.550;2023-01-27T11:07:45;98816.20;;;1.87;81.89
37066;BME280;22981;43.080;25.550;2023-01-27T11:10:18;98799.55;;;1.87;82.26
37066;BME280;22981;43.080;25.550;2023-01-27T11:12:52;98799.55;;;1.87;82.26
37066;BME280;22981;43.080;25.550;2023-01-27T11:18:09;98799.66;;;1.93;81.79
37066;BME280;22981;43.080;25.550;2023-01-27T11:20:41;98785.77;;;1.95;81.88
37066;BME280;22981;43.080;25.550;2023-01-27T11:23:21;98781.91;;;2.02;81.82
37066;BME280;22981;43.080;25.550;2023-01-27T11:28:58;98780.55;;;2.06;81.79
37066;BME280;22981;43.080;25.550;2023-01-27T11:34:19;98773.91;;;2.10;81.63
37066;BME280;22981;43.080;25.550;2023-01-27T11:36:46;98777.98;;;2.13;81.69
37066;BME280;22981;43.080;25.550;2023-01-27T11:39:16;98777.98;;;2.13;81.69
37066;BME280;22981;43.080;25.550;2023-01-27T12:07:13;98782.73;;;2.32;82.17
37066;BME280;22981;43.080;25.550;2023-01-27T12:09:38;98783.45;;;2.26;82.21
37066;BME280;22981;43.080;25.550;2023-01-27T12:12:21;98782.98;;;2.22;82.26
37066;BME280;22981;43.080;25.550;2023-01-27T12:14:59;98781.55;;;2.20;82.34
37066;BME280;22981;43.080;25.550;2023-01-27T12:17:37;98777.75;;;2.18;82.32
37066;BME280;22981;43.080;25.550;2023-01-27T12:22:59;98790.02;;;2.15;82.27
37066;BME280;22981;43.080;25.550;2023-01-27T12:25:30;98791.66;;;2.16;82.26
37066;BME280;22981;43.080;25.550;2023-01-27T12:28:00;98788.81;;;2.18;82.24
37066;BME280;22981;43.080;25.550;2023-01-27T12:30:31;98784.04;;;2.17;82.22
37066;BME280;22981;43.080;25.550;2023-01-27T12:32:59;98795.42;;;2.18;82.07
37066;BME280;22981;43.080;25.550;2023-01-27T12:35:34;98795.42;;;2.18;82.07
37066;BME280;22981;43.080;25.550;2023-01-27T12:38:13;98791.61;;;2.20;82.23
37066;BME280;22981;43.080;25.550;2023-01-27T12:40:43;98795.88;;;2.21;82.19
37066;BME280;22981;43.080;25.550;2023-01-27T12:43:18;98799.84;;;2.21;82.10
37066;BME280;22981;43.080;25.550;2023-01-27T12:48:32;98790.48;;;2.19;82.27
37066;BME280;22981;43.080;25.550;2023-01-27T12:51:13;98786.06;;;2.15;82.13
37066;BME280;22981;43.080;25.550;2023-01-27T12:53:35;98792.47;;;2.17;82.16
37066;BME280;22981;43.080;25.550;2023-01-27T12:58:46;98796.43;;;2.17;82.32
37066;BME280;22981;43.080;25.550;2023-01-27T13:01:29;98788.66;;;2.19;82.36
37066;BME280;22981;43.080;25.550;2023-01-27T13:04:17;98789.64;;;2.18;82.26
37066;BME280;22981;43.080;25.550;2023-01-27T13:07:11;98786.02;;;2.19;82.20
37066;BME280;22981;43.080;25.550;2023-01-27T13:09:47;98786.52;;;2.19;82.13
37066;BME280;22981;43.080;25.550;2023-01-27T13:12:24;98790.14;;;2.18;82.17
37066;BME280;22981;43.080;25.550;2023-01-27T13:14:55;98785.67;;;2.18;82.23
37066;BME280;22981;43.080;25.550;2023-01-27T13:17:44;98789.47;;;2.20;82.23
37066;BME280;22981;43.080;25.550;2023-01-27T13:20:43;98796.58;;;2.19;82.26
37066;BME280;22981;43.080;25.550;2023-01-27T13:23:33;98791.15;;;2.17;82.23
37066;BME280;22981;43.080;25.550;2023-01-27T13:26:15;98797.94;;;2.15;82.19
37066;BME280;22981;43.080;25.550;2023-01-27T13:31:16;98794.48;;;2.15;82.20
37066;BME280;22981;43.080;25.550;2023-01-27T13:33:46;98792.35;;;2.14;82.27
37066;BME280;22981;43.080;25.550;2023-01-27T13:36:41;98796.47;;;2.13;82.30
37066;BME280;22981;43.080;25.550;2023-01-27T13:39:58;98793.71;;;2.10;82.31
37066;BME280;22981;43.080;25.550;2023-01-27T13:42:10;98794.73;;;2.05;82.22
37066;BME280;22981;43.080;25.550;2023-01-27T13:44:42;98807.50;;;2.02;82.25
37066;BME280;22981;43.080;25.550;2023-01-27T13:47:18;98805.45;;;1.93;82.15
37066;BME280;22981;43.080;25.550;2023-01-27T13:49:49;98809.22;;;1.94;82.23
37066;BME280;22981;43.080;25.550;2023-01-27T13:52:16;98823.45;;;1.89;82.30
37066;BME280;22981;43.080;25.550;2023-01-27T13:54:43;98823.45;;;1.89;82.30
37066;BME280;22981;43.080;25.550;2023-01-27T14:00:18;98824.59;;;1.91;82.45
37066;BME280;22981;43.080;25.550;2023-01-27T14:05:37;98825.75;;;1.88;82.43
37066;BME280;22981;43.080;25.550;2023-01-27T14:14:09;98829.59;;;1.86;82.47
37066;BME280;22981;43.080;25.550;2023-01-27T14:16:42;98826.17;;;1.81;82.39
37066;BME280;22981;43.080;25.550;2023-01-27T14:19:23;98826.17;;;1.81;82.39
37066;BME280;22981;43.080;25.550;2023-01-27T14:22:06;98817.94;;;1.80;82.61
37066;BME280;22981;43.080;25.550;2023-01-27T14:24:45;98824.53;;;1.80;82.63
37066;BME280;22981;43.080;25.550;2023-01-27T14:27:17;98830.78;;;1.79;82.64
37066;BME280;22981;43.080;25.550;2023-01-27T14:29:49;98833.80;;;1.76;82.63
37066;BME280;22981;43.080;25.550;2023-01-27T14:35:14;98838.42;;;1.74;82.83
37066;BME280;22981;43.080;25.550;2023-01-27T14:37:48;98839.24;;;1.74;82.75
37066;BME280;22981;43.080;25.550;2023-01-27T14:45:46;98836.61;;;1.74;82.73
37066;BME280;22981;43.080;25.550;2023-01-27T14:48:40;98836.92;;;1.75;82.77
37066;BME280;22981;43.080;25.550;2023-01-27T14:56:38;98843.20;;;1.74;82.88
37066;BME280;22981;43.080;25.550;2023-01-27T15:02:11;98850.02;;;1.69;82.87
37066;BME280;22981;43.080;25.550;2023-01-27T15:04:44;98850.02;;;1.69;82.87
37066;BME280;22981;43.080;25.550;2023-01-27T15:10:07;98858.91;;;1.72;82.95
37066;BME280;22981;43.080;25.550;2023-01-27T15:23:52;98865.19;;;1.67;82.98